createdAt,value
2023-03-25T00:00:28.904Z,99193.03
2023-03-25T00:02:57.326Z,99182.91
2023-03-25T00:05:25.508Z,99188.56
2023-03-25T00:07:53.614Z,99195.84
2023-03-25T00:10:22.275Z,99185.19
2023-03-25T00:12:50.330Z,99183.66
2023-03-25T00:15:22.446Z,99194.69
2023-03-25T00:17:53.001Z,99186.13
2023-03-25T00:20:22.736Z,99191.72
2023-03-25T00:22:50.871Z,99201.34
2023-03-25T00:25:21.232Z,99211.66
2023-03-25T00:27:51.113Z,99207.53
2023-03-25T00:30:21.376Z,99211.56
2023-03-25T00:32:53.245Z,99214.44
2023-03-25T00:35:22.096Z,99221.59
2023-03-25T00:37:57.463Z,99222.34
2023-03-25T00:40:26.241Z,99227.50
2023-03-25T00:42:54.203Z,99224.78
2023-03-25T00:45:24.778Z,99218.91
2023-03-25T00:47:53.095Z,99215.19
2023-03-25T00:50:24.539Z,99224.16
2023-03-25T00:52:53.631Z,99218.16
2023-03-25T00:55:22.197Z,99222.72
2023-03-25T00:57:50.612Z,99213.09
2023-03-25T01:00:19.568Z,99222.84
2023-03-25T01:02:54.031Z,99219.53
2023-03-25T01:05:22.854Z,99230.56
2023-03-25T01:07:52.143Z,99215.53
2023-03-25T01:10:20.185Z,99218.06
2023-03-25T01:12:48.227Z,99221.31
2023-03-25T01:15:17.511Z,99219.66
2023-03-25T01:17:45.462Z,99214.16
2023-03-25T01:20:15.170Z,99217.84
2023-03-25T01:22:43.397Z,99209.91
2023-03-25T01:25:11.599Z,99222.09
2023-03-25T01:27:40.128Z,99217.06
2023-03-25T01:30:09.110Z,99213.19
2023-03-25T01:32:39.901Z,99204.06
2023-03-25T01:35:08.435Z,99199.38
2023-03-25T01:37:39.179Z,99208.16
2023-03-25T01:40:10.318Z,99207.72
2023-03-25T01:42:38.640Z,99204.41
2023-03-25T01:45:17.276Z,99203.63
2023-03-25T01:47:47.285Z,99210.63
2023-03-25T01:50:17.597Z,99197.78
2023-03-25T01:52:48.812Z,99194.53
2023-03-25T01:55:18.097Z,99191.50
2023-03-25T01:57:49.346Z,99191.50
2023-03-25T02:00:20.609Z,99189.47
2023-03-25T02:02:53.171Z,99190.69
2023-03-25T02:05:25.559Z,99181.44
2023-03-25T02:07:58.127Z,99174.41
2023-03-25T02:10:26.092Z,99161.50
2023-03-25T02:12:54.136Z,99157.47
2023-03-25T02:15:22.516Z,99149.63
2023-03-25T02:18:01.348Z,99149.09
2023-03-25T02:20:47.286Z,99146.75
2023-03-25T02:23:32.202Z,99128.03
2023-03-25T02:26:13.463Z,99136.81
2023-03-25T02:28:47.268Z,99132.66
2023-03-25T02:31:32.579Z,99126.66
2023-03-25T02:34:18.871Z,99140.38
2023-03-25T02:37:07.076Z,99133.78
2023-03-25T02:39:41.433Z,99134.22
2023-03-25T02:42:13.042Z,99139.00
2023-03-25T02:44:43.160Z,99129.50
2023-03-25T02:47:14.868Z,99129.97
2023-03-25T02:49:45.588Z,99140.41
2023-03-25T02:52:15.882Z,99149.63
2023-03-25T02:54:47.746Z,99149.31
2023-03-25T02:57:19.089Z,99159.66
2023-03-25T02:59:47.869Z,99163.84
2023-03-25T03:02:17.721Z,99157.13
2023-03-25T03:04:48.614Z,99167.59
2023-03-25T03:07:21.420Z,99169.53
2023-03-25T03:09:54.441Z,99170.56
2023-03-25T03:12:31.471Z,99164.25
2023-03-25T03:15:05.807Z,99179.38
2023-03-25T03:17:39.987Z,99157.38
2023-03-25T03:20:14.079Z,99171.34
2023-03-25T03:22:44.342Z,99172.16
2023-03-25T03:25:22.369Z,99161.41
2023-03-25T03:27:54.292Z,99146.09
2023-03-25T03:30:30.067Z,99167.63
2023-03-25T03:33:02.228Z,99172.16
2023-03-25T03:35:33.141Z,99170.28
2023-03-25T03:38:04.299Z,99180.75
2023-03-25T03:40:34.218Z,99181.97
2023-03-25T03:43:07.242Z,99178.56
2023-03-25T03:45:37.952Z,99185.16
2023-03-25T03:48:10.407Z,99158.88
2023-03-25T03:50:41.271Z,99179.28
2023-03-25T03:53:11.605Z,99184.72
2023-03-25T03:55:42.802Z,99177.53
2023-03-25T03:58:15.450Z,99179.00
2023-03-25T04:00:45.918Z,99194.50
2023-03-25T04:03:16.019Z,99199.22
2023-03-25T04:05:48.811Z,99204.88
2023-03-25T04:08:23.973Z,99207.53
2023-03-25T04:10:59.449Z,99206.97
2023-03-25T04:13:30.303Z,99203.50
2023-03-25T04:16:00.669Z,99216.97
2023-03-25T04:18:29.561Z,99219.91
2023-03-25T04:20:59.035Z,99216.44
2023-03-25T04:23:29.897Z,99225.31
2023-03-25T04:26:03.127Z,99226.13
2023-03-25T04:28:32.008Z,99231.41
2023-03-25T04:31:00.885Z,99224.16
2023-03-25T04:33:32.795Z,99235.84
2023-03-25T04:36:02.386Z,99235.13
2023-03-25T04:38:30.583Z,99229.75
2023-03-25T04:41:07.071Z,99232.31
2023-03-25T04:43:35.368Z,99235.44
2023-03-25T04:46:07.050Z,99245.09
2023-03-25T04:48:41.422Z,99253.47
2023-03-25T04:51:13.041Z,99249.00
2023-03-25T04:53:42.703Z,99256.44
2023-03-25T04:56:16.412Z,99259.63
2023-03-25T04:58:44.574Z,99255.41
2023-03-25T05:01:21.009Z,99254.56
2023-03-25T05:03:50.507Z,99251.38
2023-03-25T05:06:18.882Z,99250.13
2023-03-25T05:08:47.186Z,99250.75
2023-03-25T05:11:16.481Z,99240.19
2023-03-25T05:13:44.475Z,99246.31
2023-03-25T05:16:13.045Z,99247.47
2023-03-25T05:18:41.392Z,99255.44
2023-03-25T05:21:11.781Z,99245.50
2023-03-25T05:23:39.786Z,99250.56
2023-03-25T05:26:08.414Z,99258.53
2023-03-25T05:28:38.390Z,99247.19
2023-03-25T05:31:08.911Z,99243.44
2023-03-25T05:33:43.486Z,99252.53
2023-03-25T05:36:14.353Z,99252.53
2023-03-25T05:38:43.656Z,99252.88
2023-03-25T05:41:17.106Z,99249.66
2023-03-25T05:43:48.593Z,99249.53
2023-03-25T05:46:18.055Z,99264.66
2023-03-25T05:48:46.369Z,99270.56
2023-03-25T05:51:16.318Z,99262.28
2023-03-25T05:53:44.976Z,99278.19
2023-03-25T05:56:13.551Z,99280.16
2023-03-25T05:58:41.876Z,99276.34
2023-03-25T06:01:21.848Z,99282.91
2023-03-25T06:04:01.355Z,99282.00
2023-03-25T06:06:29.719Z,99272.66
2023-03-25T06:08:57.971Z,99279.16
2023-03-25T06:11:26.189Z,99276.66
2023-03-25T06:13:54.625Z,99279.25
2023-03-25T06:16:28.070Z,99300.13
2023-03-25T06:19:00.477Z,99292.59
2023-03-25T06:21:30.152Z,99278.00
2023-03-25T06:23:59.643Z,99282.38
2023-03-25T06:26:28.441Z,99289.22
2023-03-25T06:28:56.259Z,99281.66
2023-03-25T06:31:29.463Z,99286.63
2023-03-25T06:33:57.818Z,99283.53
2023-03-25T06:36:26.457Z,99258.91
2023-03-25T06:38:54.740Z,99289.72
2023-03-25T06:41:25.906Z,99280.91
2023-03-25T06:44:10.763Z,99288.25
2023-03-25T06:46:51.792Z,99291.66
2023-03-25T06:49:30.002Z,99289.56
2023-03-25T06:51:59.802Z,99302.69
2023-03-25T06:54:27.712Z,99304.88
2023-03-25T06:56:55.891Z,99298.25
2023-03-25T06:59:23.924Z,99301.84
2023-03-25T07:01:54.434Z,99303.56
2023-03-25T07:04:22.676Z,99309.84
2023-03-25T07:06:50.941Z,99319.41
2023-03-25T07:09:19.327Z,99306.97
2023-03-25T07:11:47.539Z,99311.78
2023-03-25T07:14:15.468Z,99314.03
2023-03-25T07:16:44.060Z,99318.75
2023-03-25T07:19:13.316Z,99309.03
2023-03-25T07:21:41.519Z,99323.47
2023-03-25T07:24:09.910Z,99317.84
2023-03-25T07:26:37.997Z,99303.16
2023-03-25T07:29:06.900Z,99308.50
2023-03-25T07:31:36.166Z,99317.78
2023-03-25T07:34:05.084Z,99311.31
2023-03-25T07:36:34.452Z,99308.03
2023-03-25T07:39:03.114Z,99298.09
2023-03-25T07:41:31.189Z,99292.97
2023-03-25T07:44:20.727Z,99295.28
2023-03-25T07:46:50.854Z,99308.56
2023-03-25T07:49:19.476Z,99312.47
2023-03-25T07:51:49.171Z,99310.31
2023-03-25T07:54:18.236Z,99299.59
2023-03-25T07:56:46.674Z,99311.78
2023-03-25T07:59:14.997Z,99309.19
2023-03-25T08:01:43.787Z,99311.34
2023-03-25T08:04:14.020Z,99312.41
2023-03-25T08:06:42.438Z,99295.00
2023-03-25T08:09:12.135Z,99305.44
2023-03-25T08:11:40.991Z,99306.03
2023-03-25T08:14:09.627Z,99311.53
2023-03-25T08:16:38.012Z,99309.88
2023-03-25T08:19:06.033Z,99308.19
2023-03-25T08:21:34.283Z,99300.31
2023-03-25T08:24:04.825Z,99290.41
2023-03-25T08:26:35.460Z,99304.75
2023-03-25T08:29:05.420Z,99308.59
2023-03-25T08:31:34.369Z,99291.75
2023-03-25T08:34:04.912Z,99312.31
2023-03-25T08:36:34.851Z,99304.97
2023-03-25T08:39:08.209Z,99302.88
2023-03-25T08:41:38.981Z,99290.06
2023-03-25T08:44:07.524Z,99281.59
2023-03-25T08:46:37.868Z,99281.81
2023-03-25T08:49:09.846Z,99300.13
2023-03-25T08:51:38.370Z,99285.81
2023-03-25T08:54:07.304Z,99298.19
2023-03-25T08:56:35.957Z,99293.00
2023-03-25T08:59:05.681Z,99263.09
2023-03-25T09:01:37.336Z,99283.22
2023-03-25T09:04:06.222Z,99284.03
2023-03-25T09:06:48.119Z,99281.22
2023-03-25T09:09:24.539Z,99285.16
2023-03-25T09:11:52.546Z,99269.78
2023-03-25T09:14:22.307Z,99279.53
2023-03-25T09:16:51.727Z,99268.94
2023-03-25T09:19:20.869Z,99270.75
2023-03-25T09:21:49.666Z,99264.69
2023-03-25T09:24:22.056Z,99270.31
2023-03-25T09:26:51.062Z,99268.66
2023-03-25T09:29:19.891Z,99264.13
2023-03-25T09:31:50.184Z,99256.78
2023-03-25T09:34:18.560Z,99236.34
2023-03-25T09:36:49.869Z,99236.97
2023-03-25T09:39:18.297Z,99237.66
2023-03-25T09:42:00.297Z,99256.00
2023-03-25T09:44:30.153Z,99239.53
2023-03-25T09:47:01.946Z,99236.97
2023-03-25T09:49:37.646Z,99241.28
2023-03-25T09:52:07.545Z,99252.34
2023-03-25T09:54:38.127Z,99250.13
2023-03-25T09:57:09.260Z,99260.81
2023-03-25T09:59:41.604Z,99258.22
2023-03-25T10:02:20.693Z,99266.47
2023-03-25T10:04:56.552Z,99270.44
2023-03-25T10:07:34.295Z,99272.16
2023-03-25T10:10:05.618Z,99291.19
2023-03-25T10:12:38.175Z,99286.47
2023-03-25T10:15:14.621Z,99342.94
2023-03-25T10:17:54.529Z,99316.41
2023-03-25T10:20:26.644Z,99271.66
2023-03-25T10:23:02.126Z,99247.59
2023-03-25T10:25:32.181Z,99264.19
2023-03-25T10:28:01.226Z,99263.16
2023-03-25T10:30:31.738Z,99278.16
2023-03-25T10:33:04.023Z,99272.22
2023-03-25T10:35:32.877Z,99276.53
2023-03-25T10:38:08.723Z,99289.72
2023-03-25T10:40:44.883Z,99311.81
2023-03-25T10:43:17.668Z,99296.34
2023-03-25T10:45:47.006Z,99295.06
2023-03-25T10:48:20.296Z,99307.84
2023-03-25T10:50:49.241Z,99315.97
2023-03-25T10:53:21.649Z,99327.28
2023-03-25T10:55:53.369Z,99312.63
2023-03-25T10:58:21.760Z,99308.56
2023-03-25T11:00:50.479Z,99333.63
2023-03-25T11:03:24.820Z,99328.00
2023-03-25T11:05:55.540Z,99319.59
2023-03-25T11:08:27.224Z,99318.94
2023-03-25T11:11:04.591Z,99322.50
2023-03-25T11:13:33.782Z,99319.88
2023-03-25T11:16:04.141Z,99311.53
2023-03-25T11:21:06.738Z,99326.81
2023-03-25T11:23:35.654Z,99312.63
2023-03-25T11:26:06.315Z,99322.78
2023-03-25T11:28:39.175Z,99312.75
2023-03-25T11:31:10.203Z,99307.53
2023-03-25T11:33:41.542Z,99313.50
2023-03-25T11:36:37.915Z,99312.06
2023-03-25T11:39:15.762Z,99298.13
2023-03-25T11:41:43.723Z,99311.69
2023-03-25T11:44:20.358Z,99318.34
2023-03-25T11:46:51.213Z,99316.63
2023-03-25T11:49:22.142Z,99312.78
2023-03-25T11:51:51.974Z,99311.66
2023-03-25T11:54:20.939Z,99321.91
2023-03-25T11:56:51.251Z,99325.09
2023-03-25T11:59:24.165Z,99310.81
2023-03-25T12:01:53.825Z,99310.19
2023-03-25T12:04:25.119Z,99304.28
2023-03-25T12:06:55.633Z,99317.38
2023-03-25T12:09:23.915Z,99314.38
2023-03-25T12:11:57.035Z,99309.59
2023-03-25T12:14:34.060Z,99297.00
2023-03-25T12:17:07.291Z,99279.66
2023-03-25T12:19:43.463Z,99291.22
2023-03-25T12:22:18.832Z,99290.13
2023-03-25T12:24:57.329Z,99290.84
2023-03-25T12:27:31.646Z,99287.59
2023-03-25T12:30:06.125Z,99292.94
2023-03-25T12:32:38.107Z,99281.38
2023-03-25T12:35:16.896Z,99278.19
2023-03-25T12:37:50.964Z,99274.91
2023-03-25T12:40:29.906Z,99281.31
2023-03-25T12:43:05.130Z,99272.59
2023-03-25T12:45:41.124Z,99286.78
2023-03-25T12:48:15.094Z,99281.06
2023-03-25T12:50:51.236Z,99280.59
2023-03-25T12:53:28.804Z,99282.50
2023-03-25T12:56:04.158Z,99277.25
2023-03-25T12:58:56.185Z,99280.94
2023-03-25T13:01:29.698Z,99301.38
2023-03-25T13:04:08.921Z,99309.41
2023-03-25T13:06:42.851Z,99309.00
2023-03-25T13:09:14.325Z,99300.91
2023-03-25T13:11:45.128Z,99297.59
2023-03-25T13:14:19.932Z,99298.41
2023-03-25T13:16:50.224Z,99294.28
2023-03-25T13:19:21.121Z,99306.63
2023-03-25T13:21:53.148Z,99285.28
2023-03-25T13:24:23.269Z,99278.03
2023-03-25T13:26:53.764Z,99284.38
2023-03-25T13:29:26.305Z,99282.66
2023-03-25T13:31:55.150Z,99270.94
2023-03-25T13:34:30.040Z,99278.03
2023-03-25T13:37:05.786Z,99258.09
2023-03-25T13:39:51.931Z,99279.41
2023-03-25T13:42:22.225Z,99277.06
2023-03-25T13:44:52.817Z,99266.25
2023-03-25T13:47:25.220Z,99278.38
2023-03-25T13:49:56.126Z,99267.91
2023-03-25T13:52:27.101Z,99275.28
2023-03-25T13:54:58.355Z,99270.56
2023-03-25T13:57:44.662Z,99253.09
2023-03-25T14:00:21.710Z,99274.66
2023-03-25T14:03:06.210Z,99265.69
2023-03-25T14:05:46.728Z,99280.16
2023-03-25T14:08:29.926Z,99273.63
2023-03-25T14:11:12.272Z,99271.66
2023-03-25T14:13:43.010Z,99263.03
2023-03-25T14:16:14.067Z,99261.03
2023-03-25T14:18:45.693Z,99269.47
2023-03-25T14:21:16.998Z,99270.75
2023-03-25T14:23:45.281Z,99263.84
2023-03-25T14:26:18.724Z,99260.44
2023-03-25T14:28:47.873Z,99273.47
2023-03-25T14:31:29.888Z,99269.81
2023-03-25T14:34:14.686Z,99264.91
2023-03-25T14:37:04.831Z,99271.63
2023-03-25T14:39:39.836Z,99272.13
2023-03-25T14:42:14.627Z,99262.53
2023-03-25T14:44:50.016Z,99257.75
2023-03-25T14:47:30.565Z,99266.25
2023-03-25T14:50:06.145Z,99264.19
2023-03-25T14:52:39.160Z,99260.25
2023-03-25T14:55:10.542Z,99263.09
2023-03-25T14:57:45.556Z,99259.38
2023-03-25T15:00:24.248Z,99258.44
2023-03-25T15:02:54.552Z,99259.88
2023-03-25T15:05:27.390Z,99226.63
2023-03-25T15:07:59.158Z,99254.53
2023-03-25T15:10:28.451Z,99262.97
2023-03-25T15:13:02.893Z,99240.97
2023-03-25T15:15:33.134Z,99261.94
2023-03-25T15:18:01.496Z,99255.94
2023-03-25T15:20:39.817Z,99260.09
2023-03-25T15:23:30.744Z,99268.94
2023-03-25T15:26:00.962Z,99251.25
2023-03-25T15:28:37.816Z,99256.38
2023-03-25T15:31:12.737Z,99255.28
2023-03-25T15:33:48.705Z,99258.06
2023-03-25T15:36:32.364Z,99259.81
2023-03-25T15:39:11.157Z,99254.03
2023-03-25T15:41:52.524Z,99245.13
2023-03-25T15:44:31.918Z,99244.78
2023-03-25T15:47:13.238Z,99244.91
2023-03-25T15:49:52.201Z,99239.44
2023-03-25T15:52:30.628Z,99247.13
2023-03-25T15:55:01.494Z,99248.41
2023-03-25T15:57:31.886Z,99241.94
2023-03-25T16:00:07.285Z,99237.22
2023-03-25T16:02:40.526Z,99243.53
2023-03-25T16:05:11.880Z,99242.19
2023-03-25T16:07:42.444Z,99258.94
2023-03-25T16:10:19.060Z,99224.66
2023-03-25T16:12:48.044Z,99261.84
2023-03-25T16:15:18.622Z,99266.84
2023-03-25T16:17:47.556Z,99261.84
2023-03-25T16:20:18.374Z,99255.63
2023-03-25T16:22:49.451Z,99266.91
2023-03-25T16:25:19.751Z,99257.94
2023-03-25T16:27:52.023Z,99272.22
2023-03-25T16:30:24.994Z,99266.16
2023-03-25T16:32:53.063Z,99254.66
2023-03-25T16:35:22.115Z,99264.88
2023-03-25T16:37:52.240Z,99259.84
2023-03-25T16:40:24.656Z,99265.31
2023-03-25T16:42:54.817Z,99264.28
2023-03-25T16:45:25.180Z,99261.66
2023-03-25T16:47:56.285Z,99268.97
2023-03-25T16:50:24.507Z,99263.84
2023-03-25T16:52:52.831Z,99260.16
2023-03-25T16:55:31.941Z,99259.31
2023-03-25T16:58:01.657Z,99261.97
2023-03-25T17:00:43.753Z,99256.19
2023-03-25T17:03:17.840Z,99251.78
2023-03-25T17:05:59.435Z,99266.28
2023-03-25T17:08:29.043Z,99269.00
2023-03-25T17:10:58.826Z,99268.59
2023-03-25T17:13:28.022Z,99271.25
2023-03-25T17:15:57.640Z,99278.06
2023-03-25T17:18:28.111Z,99274.16
2023-03-25T17:20:57.927Z,99269.59
2023-03-25T17:23:34.211Z,99282.53
2023-03-25T17:26:03.198Z,99300.25
2023-03-25T17:28:35.270Z,99295.06
2023-03-25T17:31:17.807Z,99297.81
2023-03-25T17:33:49.062Z,99292.13
2023-03-25T17:36:19.307Z,99301.63
2023-03-25T17:38:48.920Z,99300.06
2023-03-25T17:41:18.484Z,99303.88
2023-03-25T17:43:48.188Z,99321.34
2023-03-25T17:46:20.895Z,99302.69
2023-03-25T17:48:50.861Z,99324.97
2023-03-25T17:51:21.744Z,99337.56
2023-03-25T17:53:50.845Z,99338.81
2023-03-25T17:56:22.159Z,99342.50
2023-03-25T17:58:54.297Z,99339.78
2023-03-25T18:01:27.752Z,99345.75
2023-03-25T18:03:58.581Z,99350.47
2023-03-25T18:06:30.880Z,99356.00
2023-03-25T18:09:07.076Z,99359.88
2023-03-25T18:11:35.793Z,99366.03
2023-03-25T18:14:07.372Z,99368.72
2023-03-25T18:16:38.253Z,99377.06
2023-03-25T18:19:10.299Z,99371.97
2023-03-25T18:21:38.617Z,99368.50
2023-03-25T18:24:07.149Z,99384.72
2023-03-25T18:26:35.451Z,99378.69
2023-03-25T18:29:05.587Z,99385.75
2023-03-25T18:31:33.635Z,99376.66
2023-03-25T18:34:04.158Z,99395.97
2023-03-25T18:36:31.964Z,99394.53
2023-03-25T18:39:00.226Z,99398.03
2023-03-25T18:41:29.977Z,99402.63
2023-03-25T18:43:58.051Z,99412.88
2023-03-25T18:46:26.580Z,99412.41
2023-03-25T18:48:56.312Z,99399.16
2023-03-25T18:51:29.521Z,99408.69
2023-03-25T18:53:58.010Z,99419.25
2023-03-25T18:56:26.094Z,99417.50
2023-03-25T18:58:56.989Z,99432.13
2023-03-25T19:01:29.507Z,99434.19
2023-03-25T19:04:02.596Z,99432.75
2023-03-25T19:06:39.740Z,99435.34
2023-03-25T19:09:10.925Z,99422.53
2023-03-25T19:11:39.765Z,99417.16
2023-03-25T19:14:07.845Z,99430.94
2023-03-25T19:16:39.023Z,99423.38
2023-03-25T19:19:09.195Z,99440.06
2023-03-25T19:21:39.250Z,99443.56
2023-03-25T19:24:07.807Z,99443.38
2023-03-25T19:26:39.465Z,99448.56
2023-03-25T19:29:12.441Z,99462.13
2023-03-25T19:31:43.949Z,99461.09
2023-03-25T19:34:11.852Z,99457.88
2023-03-25T19:36:42.473Z,99456.44
2023-03-25T19:39:11.457Z,99467.19
2023-03-25T19:41:43.128Z,99474.75
2023-03-25T19:44:11.689Z,99470.81
2023-03-25T19:46:43.258Z,99467.81
2023-03-25T19:49:16.052Z,99463.69
2023-03-25T19:51:51.466Z,99462.63
2023-03-25T19:54:20.028Z,99464.28
2023-03-25T19:56:48.649Z,99468.06
2023-03-25T19:59:18.628Z,99469.44
2023-03-25T20:01:46.869Z,99458.50
2023-03-25T20:04:17.054Z,99463.00
2023-03-25T20:06:46.198Z,99459.66
2023-03-25T20:09:15.956Z,99455.13
2023-03-25T20:11:45.276Z,99454.44
2023-03-25T20:14:14.043Z,99453.75
2023-03-25T20:16:42.344Z,99438.31
2023-03-25T20:19:11.122Z,99432.72
2023-03-25T20:21:39.238Z,99431.19
2023-03-25T20:24:07.713Z,99427.25
2023-03-25T20:26:37.390Z,99426.50
2023-03-25T20:29:06.642Z,99411.50
2023-03-25T20:31:35.945Z,99415.84
2023-03-25T20:34:05.767Z,99411.50
2023-03-25T20:36:34.041Z,99409.13
2023-03-25T20:39:06.031Z,99405.50
2023-03-25T20:41:34.937Z,99403.34
2023-03-25T20:44:09.605Z,99399.16
2023-03-25T20:46:38.502Z,99401.38
2023-03-25T20:49:09.952Z,99406.22
2023-03-25T20:51:38.381Z,99412.94
2023-03-25T20:54:06.921Z,99396.63
2023-03-25T20:56:35.592Z,99400.97
2023-03-25T20:59:05.631Z,99401.59
2023-03-25T21:01:38.913Z,99404.47
2023-03-25T21:04:07.284Z,99403.13
2023-03-25T21:06:36.050Z,99400.53
2023-03-25T21:09:07.567Z,99394.81
2023-03-25T21:11:36.021Z,99396.78
2023-03-25T21:14:06.957Z,99399.06
2023-03-25T21:16:34.985Z,99402.59
2023-03-25T21:19:03.607Z,99408.81
2023-03-25T21:21:32.157Z,99412.22
2023-03-25T21:24:03.719Z,99418.31
2023-03-25T21:26:32.926Z,99420.91
2023-03-25T21:29:01.641Z,99421.66
2023-03-25T21:31:31.802Z,99423.47
2023-03-25T21:34:00.330Z,99427.13
2023-03-25T21:36:30.742Z,99432.84
2023-03-25T21:39:00.356Z,99437.19
2023-03-25T21:41:29.826Z,99442.16
2023-03-25T21:43:57.985Z,99438.00
2023-03-25T21:46:30.587Z,99440.88
2023-03-25T21:49:04.048Z,99439.84
2023-03-25T21:51:36.347Z,99441.53
2023-03-25T21:54:04.955Z,99457.03
2023-03-25T21:56:35.071Z,99460.03
2023-03-25T21:59:05.657Z,99452.28
2023-03-25T22:01:33.998Z,99458.56
2023-03-25T22:04:04.038Z,99459.50
2023-03-25T22:06:37.890Z,99452.06
2023-03-25T22:09:08.096Z,99456.41
2023-03-25T22:11:38.765Z,99461.16
2023-03-25T22:14:08.097Z,99457.84
2023-03-25T22:16:36.496Z,99460.44
2023-03-25T22:19:07.240Z,99461.47
2023-03-25T22:21:37.714Z,99468.28
2023-03-25T22:24:07.276Z,99487.84
2023-03-25T22:26:39.408Z,99474.34
2023-03-25T22:29:11.559Z,99470.41
2023-03-25T22:31:40.818Z,99468.72
2023-03-25T22:34:15.200Z,99459.25
2023-03-25T22:36:49.683Z,99458.59
2023-03-25T22:39:19.404Z,99456.34
2023-03-25T22:41:47.642Z,99461.50
2023-03-25T22:44:18.260Z,99464.50
2023-03-25T22:46:46.839Z,99458.81
2023-03-25T22:49:16.995Z,99474.50
2023-03-25T22:51:45.017Z,99469.56
2023-03-25T22:54:13.112Z,99476.31
2023-03-25T22:56:43.780Z,99480.22
2023-03-25T22:59:13.329Z,99492.47
2023-03-25T23:01:44.137Z,99496.28
2023-03-25T23:04:12.248Z,99495.56
2023-03-25T23:06:41.821Z,99488.78
2023-03-25T23:09:10.694Z,99496.72
2023-03-25T23:11:39.111Z,99499.50
2023-03-25T23:14:08.392Z,99498.28
2023-03-25T23:16:36.318Z,99498.47
2023-03-25T23:19:06.437Z,99506.75
2023-03-25T23:21:35.241Z,99500.69
2023-03-25T23:24:07.400Z,99497.97
2023-03-25T23:26:39.371Z,99498.91
2023-03-25T23:29:12.129Z,99502.50
2023-03-25T23:31:43.356Z,99484.78
2023-03-25T23:34:12.769Z,99486.53
2023-03-25T23:36:40.758Z,99488.31
2023-03-25T23:39:11.879Z,99495.25
2023-03-25T23:41:40.247Z,99486.13
2023-03-25T23:44:09.954Z,99476.19
2023-03-25T23:46:38.253Z,99476.19
2023-03-25T23:49:07.064Z,99486.25
2023-03-25T23:51:39.701Z,99476.72
2023-03-25T23:54:10.912Z,99474.75
2023-03-25T23:56:41.524Z,99468.84
2023-03-25T23:59:10.520Z,99471.44
